sensor_id;sensor_type;location;lat;lon;timestamp;pressure;altitude;pressure_sealevel;temperature;humidity
77023;BME280;65952;51.440;-2.054;2024-03-23T00:52:14;100317.72;;;8.43;56.30
77023;BME280;65952;51.440;-2.054;2024-03-23T00:54:40;100317.34;;;8.38;56.49
77023;BME280;65952;51.440;-2.054;2024-03-23T00:57:06;100310.56;;;8.44;56.26
77023;BME280;65952;51.440;-2.054;2024-03-23T00:59:31;100308.69;;;8.44;56.62
77023;BME280;65952;51.440;-2.054;2024-03-23T01:01:57;100312.09;;;8.47;56.75
77023;BME280;65952;51.440;-2.054;2024-03-23T01:04:22;100310.56;;;8.44;56.64
77023;BME280;65952;51.440;-2.054;2024-03-23T01:06:50;100301.63;;;8.35;57.26
77023;BME280;65952;51.440;-2.054;2024-03-23T01:09:16;100304.34;;;8.43;56.86
77023;BME280;65952;51.440;-2.054;2024-03-23T01:11:41;100290.44;;;8.40;56.97
77023;BME280;65952;51.440;-2.054;2024-03-23T01:14:07;100294.94;;;8.39;56.74
77023;BME280;65952;51.440;-2.054;2024-03-23T01:16:32;100290.25;;;8.41;56.61
77023;BME280;65952;51.440;-2.054;2024-03-23T01:18:58;100297.25;;;8.34;57.27
77023;BME280;65952;51.440;-2.054;2024-03-23T01:21:23;100297.25;;;8.34;57.32
77023;BME280;65952;51.440;-2.054;2024-03-23T01:23:48;100294.25;;;8.37;57.35
77023;BME280;65952;51.440;-2.054;2024-03-23T01:26:14;100301.28;;;8.38;56.89
77023;BME280;65952;51.440;-2.054;2024-03-23T01:28:40;100299.75;;;8.36;57.26
77023;BME280;65952;51.440;-2.054;2024-03-23T01:31:05;100292.81;;;8.25;57.60
77023;BME280;65952;51.440;-2.054;2024-03-23T01:33:31;100291.91;;;8.34;57.27
77023;BME280;65952;51.440;-2.054;2024-03-23T01:35:56;100287.69;;;8.32;57.41
77023;BME280;65952;51.440;-2.054;2024-03-23T01:38:22;100285.78;;;8.24;57.45
77023;BME280;65952;51.440;-2.054;2024-03-23T01:40:47;100283.63;;;8.27;57.18
77023;BME280;65952;51.440;-2.054;2024-03-23T01:43:13;100282.25;;;8.23;57.60
77023;BME280;65952;51.440;-2.054;2024-03-23T01:45:38;100279.59;;;8.05;58.04
77023;BME280;65952;51.440;-2.054;2024-03-23T01:48:04;100279.97;;;8.10;58.08
77023;BME280;65952;51.440;-2.054;2024-03-23T01:50:31;100279.66;;;8.13;57.90
77023;BME280;65952;51.440;-2.054;2024-03-23T01:53:00;100263.03;;;8.02;58.24
77023;BME280;65952;51.440;-2.054;2024-03-23T01:55:27;100266.13;;;7.97;58.66
77023;BME280;65952;51.440;-2.054;2024-03-23T01:57:52;100270.34;;;8.00;58.80
77023;BME280;65952;51.440;-2.054;2024-03-23T02:00:18;100268.75;;;7.89;59.13
77023;BME280;65952;51.440;-2.054;2024-03-23T02:02:47;100260.25;;;7.93;58.68
77023;BME280;65952;51.440;-2.054;2024-03-23T02:05:12;100269.34;;;8.01;58.83
77023;BME280;65952;51.440;-2.054;2024-03-23T02:07:42;100267.28;;;7.94;58.96
77023;BME280;65952;51.440;-2.054;2024-03-23T02:10:10;100263.94;;;7.92;59.22
77023;BME280;65952;51.440;-2.054;2024-03-23T02:12:36;100263.31;;;7.80;59.52
77023;BME280;65952;51.440;-2.054;2024-03-23T02:15:02;100266.13;;;7.97;59.12
77023;BME280;65952;51.440;-2.054;2024-03-23T02:17:33;100259.72;;;7.90;59.37
77023;BME280;65952;51.440;-2.054;2024-03-23T02:20:08;100266.38;;;7.86;59.76
77023;BME280;65952;51.440;-2.054;2024-03-23T02:22:37;100255.06;;;7.92;59.41
77023;BME280;65952;51.440;-2.054;2024-03-23T02:25:04;100252.94;;;7.77;59.90
77023;BME280;65952;51.440;-2.054;2024-03-23T02:27:30;100251.34;;;8.03;59.19
77023;BME280;65952;51.440;-2.054;2024-03-23T02:29:56;100249.03;;;7.90;59.16
77023;BME280;65952;51.440;-2.054;2024-03-23T02:32:22;100254.84;;;8.03;58.84
77023;BME280;65952;51.440;-2.054;2024-03-23T02:34:47;100251.03;;;8.06;58.47
77023;BME280;65952;51.440;-2.054;2024-03-23T02:37:12;100252.06;;;7.77;59.51
77023;BME280;65952;51.440;-2.054;2024-03-23T02:39:38;100244.00;;;7.87;59.55
77023;BME280;65952;51.440;-2.054;2024-03-23T02:42:03;100248.28;;;7.97;59.00
77023;BME280;65952;51.440;-2.054;2024-03-23T02:44:29;100237.50;;;8.07;58.50
77023;BME280;65952;51.440;-2.054;2024-03-23T02:46:54;100242.41;;;7.94;58.67
77023;BME280;65952;51.440;-2.054;2024-03-23T02:49:19;100238.81;;;7.85;58.89
77023;BME280;65952;51.440;-2.054;2024-03-23T02:51:46;100235.66;;;7.90;58.62
77023;BME280;65952;51.440;-2.054;2024-03-23T02:54:13;100243.00;;;7.88;58.79
77023;BME280;65952;51.440;-2.054;2024-03-23T02:56:56;100247.34;;;8.07;58.19
77023;BME280;65952;51.440;-2.054;2024-03-23T02:59:38;100243.38;;;7.93;58.38
77023;BME280;65952;51.440;-2.054;2024-03-23T03:02:04;100237.28;;;7.83;58.95
77023;BME280;65952;51.440;-2.054;2024-03-23T03:04:30;100240.25;;;7.79;59.17
77023;BME280;65952;51.440;-2.054;2024-03-23T03:06:56;100238.81;;;7.85;58.78
77023;BME280;65952;51.440;-2.054;2024-03-23T03:16:42;100249.34;;;7.41;60.64
77023;BME280;65952;51.440;-2.054;2024-03-23T03:20:22;100244.25;;;7.47;60.13
77023;BME280;65952;51.440;-2.054;2024-03-23T03:27:26;100246.06;;;7.47;60.12
77023;BME280;65952;51.440;-2.054;2024-03-23T03:31:02;100247.31;;;7.53;59.79
77023;BME280;65952;51.440;-2.054;2024-03-23T03:34:39;100247.91;;;7.46;59.71
77023;BME280;65952;51.440;-2.054;2024-03-23T03:38:12;100243.41;;;7.47;59.51
77023;BME280;65952;51.440;-2.054;2024-03-23T03:44:57;100233.97;;;7.53;59.34
77023;BME280;65952;51.440;-2.054;2024-03-23T03:47:24;100228.44;;;7.36;59.91
77023;BME280;65952;51.440;-2.054;2024-03-23T03:49:50;100228.63;;;7.53;59.28
77023;BME280;65952;51.440;-2.054;2024-03-23T03:52:16;100220.22;;;7.47;59.40
77023;BME280;65952;51.440;-2.054;2024-03-23T03:54:41;100225.25;;;7.51;59.20
77023;BME280;65952;51.440;-2.054;2024-03-23T03:57:42;100223.16;;;7.44;59.49
77023;BME280;65952;51.440;-2.054;2024-03-23T04:05:06;100220.81;;;7.13;60.47
77023;BME280;65952;51.440;-2.054;2024-03-23T04:08:35;100218.16;;;7.13;60.20
77023;BME280;65952;51.440;-2.054;2024-03-23T04:11:45;100230.84;;;7.29;60.02
77023;BME280;65952;51.440;-2.054;2024-03-23T04:14:11;100224.13;;;7.25;60.33
77023;BME280;65952;51.440;-2.054;2024-03-23T04:16:36;100223.56;;;7.22;60.47
77023;BME280;65952;51.440;-2.054;2024-03-23T04:19:02;100224.47;;;7.40;59.82
77023;BME280;65952;51.440;-2.054;2024-03-23T04:21:27;100222.50;;;7.42;59.60
77023;BME280;65952;51.440;-2.054;2024-03-23T04:23:53;100222.72;;;7.31;60.29
77023;BME280;65952;51.440;-2.054;2024-03-23T04:26:18;100218.41;;;7.20;60.09
77023;BME280;65952;51.440;-2.054;2024-03-23T04:28:44;100218.59;;;7.37;59.81
77023;BME280;65952;51.440;-2.054;2024-03-23T04:31:09;100216.09;;;7.53;59.42
77023;BME280;65952;51.440;-2.054;2024-03-23T04:33:35;100210.69;;;7.63;58.76
77023;BME280;65952;51.440;-2.054;2024-03-23T04:36:01;100209.97;;;7.43;59.20
77023;BME280;65952;51.440;-2.054;2024-03-23T04:38:26;100204.19;;;7.47;59.29
77023;BME280;65952;51.440;-2.054;2024-03-23T04:40:56;100208.47;;;7.12;60.27
77023;BME280;65952;51.440;-2.054;2024-03-23T04:43:21;100208.16;;;7.43;59.75
77023;BME280;65952;51.440;-2.054;2024-03-23T04:45:46;100205.38;;;7.35;59.29
77023;BME280;65952;51.440;-2.054;2024-03-23T04:48:12;100220.69;;;7.61;58.85
77023;BME280;65952;51.440;-2.054;2024-03-23T04:50:38;100213.19;;;7.46;58.88
77023;BME280;65952;51.440;-2.054;2024-03-23T04:53:03;100219.31;;;7.57;58.54
77023;BME280;65952;51.440;-2.054;2024-03-23T04:55:29;100224.09;;;7.53;58.76
77023;BME280;65952;51.440;-2.054;2024-03-23T04:57:54;100219.91;;;7.51;59.03
77023;BME280;65952;51.440;-2.054;2024-03-23T05:00:20;100218.44;;;7.38;58.97
77023;BME280;65952;51.440;-2.054;2024-03-23T05:02:45;100219.00;;;7.60;58.64
77023;BME280;65952;51.440;-2.054;2024-03-23T05:05:11;100213.28;;;7.55;58.53
77023;BME280;65952;51.440;-2.054;2024-03-23T05:07:37;100209.91;;;7.71;57.92
77023;BME280;65952;51.440;-2.054;2024-03-23T05:10:03;100203.13;;;7.58;58.43
77023;BME280;65952;51.440;-2.054;2024-03-23T05:12:28;100197.94;;;7.57;58.46
77023;BME280;65952;51.440;-2.054;2024-03-23T05:14:54;100200.16;;;7.61;58.13
77023;BME280;65952;51.440;-2.054;2024-03-23T05:17:19;100199.84;;;7.46;58.73
77023;BME280;65952;51.440;-2.054;2024-03-23T05:19:44;100191.06;;;7.54;58.10
77023;BME280;65952;51.440;-2.054;2024-03-23T05:22:24;100185.56;;;7.56;58.30
77023;BME280;65952;51.440;-2.054;2024-03-23T05:24:50;100183.50;;;7.49;58.38
77023;BME280;65952;51.440;-2.054;2024-03-23T05:27:16;100178.56;;;7.55;58.45
77023;BME280;65952;51.440;-2.054;2024-03-23T05:29:41;100188.63;;;7.61;58.06
77023;BME280;65952;51.440;-2.054;2024-03-23T05:32:07;100183.75;;;7.56;58.31
77023;BME280;65952;51.440;-2.054;2024-03-23T05:34:33;100182.38;;;7.52;58.24
77023;BME280;65952;51.440;-2.054;2024-03-23T05:37:02;100189.91;;;7.57;58.28
77023;BME280;65952;51.440;-2.054;2024-03-23T05:39:28;100183.59;;;7.58;58.09
77023;BME280;65952;51.440;-2.054;2024-03-23T05:41:53;100179.94;;;7.59;58.00
77023;BME280;65952;51.440;-2.054;2024-03-23T05:44:19;100179.75;;;7.42;58.90
77023;BME280;65952;51.440;-2.054;2024-03-23T05:46:44;100186.75;;;6.97;60.00
77023;BME280;65952;51.440;-2.054;2024-03-23T05:49:14;100172.78;;;7.13;59.70
77023;BME280;65952;51.440;-2.054;2024-03-23T05:51:40;100178.44;;;7.28;59.15
77023;BME280;65952;51.440;-2.054;2024-03-23T05:54:06;100173.66;;;7.32;59.12
77023;BME280;65952;51.440;-2.054;2024-03-23T05:56:31;100173.34;;;7.53;58.51
77023;BME280;65952;51.440;-2.054;2024-03-23T05:58:56;100173.38;;;7.25;59.03
77023;BME280;65952;51.440;-2.054;2024-03-23T06:01:22;100173.50;;;7.52;58.34
77023;BME280;65952;51.440;-2.054;2024-03-23T06:03:47;100168.16;;;7.52;58.34
77023;BME280;65952;51.440;-2.054;2024-03-23T06:06:12;100161.13;;;7.51;58.38
77023;BME280;65952;51.440;-2.054;2024-03-23T06:08:38;100162.13;;;7.49;58.42
77023;BME280;65952;51.440;-2.054;2024-03-23T06:11:04;100164.28;;;7.46;58.36
77023;BME280;65952;51.440;-2.054;2024-03-23T06:13:32;100163.97;;;7.49;58.58
77023;BME280;65952;51.440;-2.054;2024-03-23T06:15:57;100161.59;;;7.64;57.98
77023;BME280;65952;51.440;-2.054;2024-03-23T06:18:24;100152.69;;;7.55;58.36
77023;BME280;65952;51.440;-2.054;2024-03-23T06:20:49;100145.34;;;7.57;58.26
77023;BME280;65952;51.440;-2.054;2024-03-23T06:23:14;100152.53;;;7.75;57.73
77023;BME280;65952;51.440;-2.054;2024-03-23T06:25:40;100149.63;;;7.68;57.64
77023;BME280;65952;51.440;-2.054;2024-03-23T06:28:06;100155.50;;;7.72;57.39
77023;BME280;65952;51.440;-2.054;2024-03-23T06:30:31;100144.66;;;7.73;57.27
77023;BME280;65952;51.440;-2.054;2024-03-23T06:32:57;100153.13;;;7.87;57.15
77023;BME280;65952;51.440;-2.054;2024-03-23T06:35:23;100153.69;;;7.72;57.14
77023;BME280;65952;51.440;-2.054;2024-03-23T06:37:50;100153.56;;;7.82;57.17
77023;BME280;65952;51.440;-2.054;2024-03-23T06:40:15;100152.50;;;7.93;56.84
77023;BME280;65952;51.440;-2.054;2024-03-23T06:42:54;100153.69;;;7.98;56.46
77023;BME280;65952;51.440;-2.054;2024-03-23T06:45:20;100149.22;;;7.99;56.43
77023;BME280;65952;51.440;-2.054;2024-03-23T06:47:49;100139.59;;;7.88;56.70
77023;BME280;65952;51.440;-2.054;2024-03-23T06:50:15;100150.66;;;8.11;56.39
77023;BME280;65952;51.440;-2.054;2024-03-23T06:55:34;100141.72;;;8.03;56.63
77023;BME280;65952;51.440;-2.054;2024-03-23T06:58:00;100130.41;;;8.35;56.01
77023;BME280;65952;51.440;-2.054;2024-03-23T07:00:26;100123.25;;;7.91;57.21
77023;BME280;65952;51.440;-2.054;2024-03-23T07:02:51;100128.34;;;8.03;56.99
77023;BME280;65952;51.440;-2.054;2024-03-23T07:05:17;100123.84;;;8.29;56.57
77023;BME280;65952;51.440;-2.054;2024-03-23T07:07:42;100116.34;;;8.33;56.49
77023;BME280;65952;51.440;-2.054;2024-03-23T07:10:08;100119.28;;;8.74;55.69
77023;BME280;65952;51.440;-2.054;2024-03-23T07:12:33;100113.47;;;8.53;55.80
77023;BME280;65952;51.440;-2.054;2024-03-23T07:14:59;100115.47;;;8.51;56.25
77023;BME280;65952;51.440;-2.054;2024-03-23T07:17:24;100114.22;;;8.71;55.53
77023;BME280;65952;51.440;-2.054;2024-03-23T07:19:50;100107.06;;;8.72;55.42
77023;BME280;65952;51.440;-2.054;2024-03-23T07:22:15;100102.63;;;8.97;54.68
77023;BME280;65952;51.440;-2.054;2024-03-23T07:24:40;100101.81;;;9.13;54.49
77023;BME280;65952;51.440;-2.054;2024-03-23T07:27:06;100106.88;;;9.33;53.88
77023;BME280;65952;51.440;-2.054;2024-03-23T07:29:35;100106.63;;;9.01;54.64
77023;BME280;65952;51.440;-2.054;2024-03-23T07:32:00;100097.66;;;9.19;54.27
77023;BME280;65952;51.440;-2.054;2024-03-23T07:34:26;100105.81;;;9.01;54.71
77023;BME280;65952;51.440;-2.054;2024-03-23T07:36:51;100105.47;;;8.96;54.71
77023;BME280;65952;51.440;-2.054;2024-03-23T07:39:17;100091.25;;;9.11;54.16
77023;BME280;65952;51.440;-2.054;2024-03-23T07:41:44;100097.09;;;8.99;54.53
77023;BME280;65952;51.440;-2.054;2024-03-23T07:44:10;100103.66;;;9.13;54.94
77023;BME280;65952;51.440;-2.054;2024-03-23T07:46:36;100099.34;;;9.36;53.87
77023;BME280;65952;51.440;-2.054;2024-03-23T07:49:01;100097.69;;;9.68;52.66
77023;BME280;65952;51.440;-2.054;2024-03-23T07:51:29;100094.78;;;10.84;49.93
77023;BME280;65952;51.440;-2.054;2024-03-23T07:53:54;100086.59;;;12.16;46.28
77023;BME280;65952;51.440;-2.054;2024-03-23T07:56:19;100093.19;;;13.90;42.98
77023;BME280;65952;51.440;-2.054;2024-03-23T07:58:46;100092.50;;;14.80;40.46
77023;BME280;65952;51.440;-2.054;2024-03-23T08:01:14;100089.28;;;15.11;39.51
77023;BME280;65952;51.440;-2.054;2024-03-23T08:03:44;100095.78;;;14.69;40.46
77023;BME280;65952;51.440;-2.054;2024-03-23T08:06:11;100093.16;;;14.47;40.74
77023;BME280;65952;51.440;-2.054;2024-03-23T08:08:38;100089.06;;;14.23;40.39
77023;BME280;65952;51.440;-2.054;2024-03-23T08:11:04;100093.28;;;13.54;42.13
77023;BME280;65952;51.440;-2.054;2024-03-23T08:13:30;100092.13;;;13.05;43.44
77023;BME280;65952;51.440;-2.054;2024-03-23T08:15:59;100083.56;;;13.59;42.95
77023;BME280;65952;51.440;-2.054;2024-03-23T08:18:25;100079.94;;;13.95;42.06
77023;BME280;65952;51.440;-2.054;2024-03-23T08:21:04;100075.28;;;15.83;38.65
77023;BME280;65952;51.440;-2.054;2024-03-23T08:23:32;100074.81;;;16.33;37.23
77023;BME280;65952;51.440;-2.054;2024-03-23T08:26:03;100073.19;;;17.30;34.97
77023;BME280;65952;51.440;-2.054;2024-03-23T08:28:29;100076.06;;;17.35;34.89
77023;BME280;65952;51.440;-2.054;2024-03-23T08:30:55;100076.47;;;17.96;34.03
77023;BME280;65952;51.440;-2.054;2024-03-23T08:33:21;100074.91;;;17.81;33.73
77023;BME280;65952;51.440;-2.054;2024-03-23T08:35:57;100058.16;;;18.10;33.34
77023;BME280;65952;51.440;-2.054;2024-03-23T08:38:35;100080.44;;;17.68;33.46
77023;BME280;65952;51.440;-2.054;2024-03-23T08:48:06;100045.88;;;19.42;30.06
77023;BME280;65952;51.440;-2.054;2024-03-23T08:50:31;100040.38;;;19.19;30.33
77023;BME280;65952;51.440;-2.054;2024-03-23T08:52:57;100046.16;;;19.76;29.52
77023;BME280;65952;51.440;-2.054;2024-03-23T08:55:40;100044.34;;;19.46;30.10
77023;BME280;65952;51.440;-2.054;2024-03-23T08:58:09;100050.09;;;18.96;30.37
77023;BME280;65952;51.440;-2.054;2024-03-23T09:00:35;100049.53;;;18.57;31.57
77023;BME280;65952;51.440;-2.054;2024-03-23T09:03:00;100044.41;;;18.97;30.90
77023;BME280;65952;51.440;-2.054;2024-03-23T09:05:44;100038.75;;;17.55;32.49
77023;BME280;65952;51.440;-2.054;2024-03-23T09:08:41;100032.78;;;16.69;33.78
77023;BME280;65952;51.440;-2.054;2024-03-23T09:11:09;100025.38;;;16.90;33.70
77023;BME280;65952;51.440;-2.054;2024-03-23T09:13:36;100010.22;;;17.71;32.07
77023;BME280;65952;51.440;-2.054;2024-03-23T09:16:01;100023.75;;;18.03;31.11
77023;BME280;65952;51.440;-2.054;2024-03-23T09:18:27;100029.16;;;18.29;30.57
77023;BME280;65952;51.440;-2.054;2024-03-23T09:20:52;100036.47;;;17.27;32.69
77023;BME280;65952;51.440;-2.054;2024-03-23T09:23:22;100024.69;;;17.40;33.11
77023;BME280;65952;51.440;-2.054;2024-03-23T09:26:03;100025.31;;;17.42;33.15
77023;BME280;65952;51.440;-2.054;2024-03-23T09:29:04;100018.22;;;17.09;33.78
77023;BME280;65952;51.440;-2.054;2024-03-23T09:31:29;100017.72;;;16.80;35.06
77023;BME280;65952;51.440;-2.054;2024-03-23T09:33:57;100024.47;;;17.10;33.93
77023;BME280;65952;51.440;-2.054;2024-03-23T09:36:23;100013.00;;;17.40;33.04
77023;BME280;65952;51.440;-2.054;2024-03-23T09:38:48;100010.16;;;16.44;34.54
77023;BME280;65952;51.440;-2.054;2024-03-23T09:41:14;100003.53;;;16.39;35.01
77023;BME280;65952;51.440;-2.054;2024-03-23T09:43:40;100011.41;;;16.48;34.33
77023;BME280;65952;51.440;-2.054;2024-03-23T09:46:35;100002.00;;;17.02;34.25
77023;BME280;65952;51.440;-2.054;2024-03-23T09:52:59;99998.88;;;17.31;33.52
77023;BME280;65952;51.440;-2.054;2024-03-23T09:55:27;100002.75;;;16.71;33.91
77023;BME280;65952;51.440;-2.054;2024-03-23T09:57:53;99998.47;;;16.56;34.59
77023;BME280;65952;51.440;-2.054;2024-03-23T10:00:19;99990.69;;;16.08;34.88
77023;BME280;65952;51.440;-2.054;2024-03-23T10:02:47;99994.44;;;15.00;37.12
77023;BME280;65952;51.440;-2.054;2024-03-23T10:05:22;99991.66;;;14.24;37.70
77023;BME280;65952;51.440;-2.054;2024-03-23T10:08:24;99973.47;;;14.05;38.71
77023;BME280;65952;51.440;-2.054;2024-03-23T10:11:15;99985.22;;;13.84;38.73
77023;BME280;65952;51.440;-2.054;2024-03-23T10:13:43;99987.84;;;14.12;38.75
77023;BME280;65952;51.440;-2.054;2024-03-23T10:16:42;99981.50;;;13.91;39.20
77023;BME280;65952;51.440;-2.054;2024-03-23T10:19:30;99976.66;;;14.15;38.81
77023;BME280;65952;51.440;-2.054;2024-03-23T10:21:56;99961.97;;;14.24;38.72
77023;BME280;65952;51.440;-2.054;2024-03-23T10:24:22;99962.97;;;14.17;39.57
77023;BME280;65952;51.440;-2.054;2024-03-23T10:26:56;99968.63;;;13.93;40.32
77023;BME280;65952;51.440;-2.054;2024-03-23T10:29:43;99970.50;;;13.58;42.04
77023;BME280;65952;51.440;-2.054;2024-03-23T10:32:42;99989.25;;;12.43;46.70
77023;BME280;65952;51.440;-2.054;2024-03-23T10:35:19;99969.19;;;12.30;47.96
77023;BME280;65952;51.440;-2.054;2024-03-23T10:37:48;99970.06;;;12.89;47.43
77023;BME280;65952;51.440;-2.054;2024-03-23T10:40:17;99952.13;;;14.10;46.09
77023;BME280;65952;51.440;-2.054;2024-03-23T10:42:44;99947.38;;;14.74;43.31
77023;BME280;65952;51.440;-2.054;2024-03-23T10:45:09;99941.44;;;15.19;42.20
77023;BME280;65952;51.440;-2.054;2024-03-23T10:47:36;99934.38;;;14.42;42.26
77023;BME280;65952;51.440;-2.054;2024-03-23T10:50:15;99944.38;;;14.49;42.57
77023;BME280;65952;51.440;-2.054;2024-03-23T10:53:15;99932.97;;;14.53;42.00
77023;BME280;65952;51.440;-2.054;2024-03-23T10:55:42;99925.81;;;15.61;40.96
77023;BME280;65952;51.440;-2.054;2024-03-23T10:58:28;99929.22;;;16.61;38.69
77023;BME280;65952;51.440;-2.054;2024-03-23T11:05:04;99912.13;;;15.36;39.04
77023;BME280;65952;51.440;-2.054;2024-03-23T11:08:29;99910.81;;;14.71;39.83
77023;BME280;65952;51.440;-2.054;2024-03-23T11:11:47;99893.59;;;14.17;40.49
77023;BME280;65952;51.440;-2.054;2024-03-23T11:18:20;99876.06;;;15.55;39.40
77023;BME280;65952;51.440;-2.054;2024-03-23T11:20:46;99873.81;;;15.32;38.74
77023;BME280;65952;51.440;-2.054;2024-03-23T11:23:39;99887.88;;;14.47;40.48
77023;BME280;65952;51.440;-2.054;2024-03-23T11:26:48;99907.09;;;13.40;44.66
77023;BME280;65952;51.440;-2.054;2024-03-23T11:29:17;99905.22;;;12.32;47.72
77023;BME280;65952;51.440;-2.054;2024-03-23T11:31:52;99908.09;;;12.46;47.74
77023;BME280;65952;51.440;-2.054;2024-03-23T11:34:19;99915.41;;;11.17;51.35
77023;BME280;65952;51.440;-2.054;2024-03-23T11:36:45;99908.00;;;10.58;53.40
77023;BME280;65952;51.440;-2.054;2024-03-23T11:39:15;99909.31;;;9.91;54.94
77023;BME280;65952;51.440;-2.054;2024-03-23T11:42:04;99888.66;;;9.60;56.20
77023;BME280;65952;51.440;-2.054;2024-03-23T11:44:41;99898.41;;;9.28;56.58
77023;BME280;65952;51.440;-2.054;2024-03-23T11:47:34;99895.25;;;9.89;56.01
77023;BME280;65952;51.440;-2.054;2024-03-23T11:54:58;99884.13;;;11.84;53.24
77023;BME280;65952;51.440;-2.054;2024-03-23T12:01:10;99881.78;;;13.41;50.40
77023;BME280;65952;51.440;-2.054;2024-03-23T12:03:35;99867.56;;;13.54;48.96
77023;BME280;65952;51.440;-2.054;2024-03-23T12:06:03;99870.25;;;13.54;48.18
77023;BME280;65952;51.440;-2.054;2024-03-23T12:08:30;99850.81;;;13.65;48.19
77023;BME280;65952;51.440;-2.054;2024-03-23T12:11:07;99842.81;;;13.86;47.18
77023;BME280;65952;51.440;-2.054;2024-03-23T12:13:33;99843.06;;;14.66;45.96
77023;BME280;65952;51.440;-2.054;2024-03-23T12:16:24;99840.72;;;14.56;44.12
77023;BME280;65952;51.440;-2.054;2024-03-23T12:22:49;99827.25;;;14.63;44.52
77023;BME280;65952;51.440;-2.054;2024-03-23T12:25:14;99839.91;;;14.56;43.90
77023;BME280;65952;51.440;-2.054;2024-03-23T12:27:40;99832.19;;;14.33;44.19
77023;BME280;65952;51.440;-2.054;2024-03-23T12:30:10;99825.75;;;14.40;44.18
77023;BME280;65952;51.440;-2.054;2024-03-23T12:32:36;99815.75;;;14.27;44.39
77023;BME280;65952;51.440;-2.054;2024-03-23T12:35:02;99801.91;;;14.84;43.64
77023;BME280;65952;51.440;-2.054;2024-03-23T12:37:27;99807.03;;;15.33;41.85
77023;BME280;65952;51.440;-2.054;2024-03-23T12:39:52;99805.84;;;14.88;41.46
77023;BME280;65952;51.440;-2.054;2024-03-23T12:42:18;99795.00;;;15.15;40.60
77023;BME280;65952;51.440;-2.054;2024-03-23T12:44:43;99821.00;;;15.03;40.04
77023;BME280;65952;51.440;-2.054;2024-03-23T12:47:09;99811.25;;;14.82;40.00
77023;BME280;65952;51.440;-2.054;2024-03-23T12:49:36;99810.03;;;14.84;40.20
77023;BME280;65952;51.440;-2.054;2024-03-23T12:52:12;99797.63;;;15.42;38.95
77023;BME280;65952;51.440;-2.054;2024-03-23T12:55:11;99791.44;;;15.28;38.34
77023;BME280;65952;51.440;-2.054;2024-03-23T12:58:13;99787.53;;;15.17;37.74
77023;BME280;65952;51.440;-2.054;2024-03-23T13:01:03;99788.78;;;15.08;36.94
77023;BME280;65952;51.440;-2.054;2024-03-23T13:04:01;99792.16;;;15.69;36.42
77023;BME280;65952;51.440;-2.054;2024-03-23T13:06:57;99793.03;;;15.49;37.54
77023;BME280;65952;51.440;-2.054;2024-03-23T13:09:52;99791.72;;;15.00;37.79
77023;BME280;65952;51.440;-2.054;2024-03-23T13:12:21;99784.16;;;15.22;38.31
77023;BME280;65952;51.440;-2.054;2024-03-23T13:14:46;99794.56;;;15.32;37.88
77023;BME280;65952;51.440;-2.054;2024-03-23T13:17:12;99794.84;;;14.70;38.96
77023;BME280;65952;51.440;-2.054;2024-03-23T13:19:38;99798.09;;;14.45;39.09
77023;BME280;65952;51.440;-2.054;2024-03-23T13:22:04;99792.75;;;14.92;38.96
77023;BME280;65952;51.440;-2.054;2024-03-23T13:24:29;99787.78;;;14.69;39.31
77023;BME280;65952;51.440;-2.054;2024-03-23T13:30:34;99805.19;;;14.39;40.35
77023;BME280;65952;51.440;-2.054;2024-03-23T13:33:30;99795.00;;;14.48;38.40
77023;BME280;65952;51.440;-2.054;2024-03-23T13:35:57;99806.81;;;14.34;38.89
77023;BME280;65952;51.440;-2.054;2024-03-23T13:38:23;99794.38;;;14.46;39.17
77023;BME280;65952;51.440;-2.054;2024-03-23T13:40:56;99795.41;;;14.32;38.80
77023;BME280;65952;51.440;-2.054;2024-03-23T13:43:30;99796.28;;;14.92;38.32
77023;BME280;65952;51.440;-2.054;2024-03-23T13:45:57;99800.59;;;15.20;38.30
77023;BME280;65952;51.440;-2.054;2024-03-23T13:48:24;99794.56;;;15.32;38.43
77023;BME280;65952;51.440;-2.054;2024-03-23T13:51:04;99790.84;;;15.78;38.30
77023;BME280;65952;51.440;-2.054;2024-03-23T13:53:31;99793.28;;;16.00;38.00
77023;BME280;65952;51.440;-2.054;2024-03-23T13:55:57;99795.44;;;15.77;36.47
77023;BME280;65952;51.440;-2.054;2024-03-23T13:58:23;99777.19;;;14.67;37.63
77023;BME280;65952;51.440;-2.054;2024-03-23T14:00:51;99771.63;;;13.87;39.45
77023;BME280;65952;51.440;-2.054;2024-03-23T14:03:17;99784.63;;;13.63;40.54
77023;BME280;65952;51.440;-2.054;2024-03-23T14:05:43;99785.69;;;13.69;40.31
77023;BME280;65952;51.440;-2.054;2024-03-23T14:08:11;99785.13;;;13.80;40.15
77023;BME280;65952;51.440;-2.054;2024-03-23T14:10:40;99780.44;;;14.22;39.83
77023;BME280;65952;51.440;-2.054;2024-03-23T14:13:06;99781.28;;;14.29;38.08
77023;BME280;65952;51.440;-2.054;2024-03-23T14:15:32;99773.09;;;13.96;38.71
77023;BME280;65952;51.440;-2.054;2024-03-23T14:17:58;99791.25;;;14.36;38.73
77023;BME280;65952;51.440;-2.054;2024-03-23T14:20:24;99786.50;;;14.44;38.80
77023;BME280;65952;51.440;-2.054;2024-03-23T14:22:49;99783.16;;;14.62;38.23
77023;BME280;65952;51.440;-2.054;2024-03-23T14:25:15;99784.41;;;14.40;38.42
77023;BME280;65952;51.440;-2.054;2024-03-23T14:27:41;99786.06;;;14.34;37.06
77023;BME280;65952;51.440;-2.054;2024-03-23T14:30:06;99800.59;;;14.26;37.65
77023;BME280;65952;51.440;-2.054;2024-03-23T14:32:32;99821.78;;;13.04;42.42
77023;BME280;65952;51.440;-2.054;2024-03-23T14:35:01;99878.69;;;12.08;48.09
77023;BME280;65952;51.440;-2.054;2024-03-23T14:37:35;99879.44;;;11.03;49.67
77023;BME280;65952;51.440;-2.054;2024-03-23T14:40:01;99858.22;;;10.94;49.60
77023;BME280;65952;51.440;-2.054;2024-03-23T14:42:28;99835.00;;;10.78;50.58
77023;BME280;65952;51.440;-2.054;2024-03-23T14:44:53;99849.88;;;10.65;51.22
77023;BME280;65952;51.440;-2.054;2024-03-23T14:47:19;99849.47;;;10.53;52.27
77023;BME280;65952;51.440;-2.054;2024-03-23T14:49:46;99832.03;;;10.72;52.16
77023;BME280;65952;51.440;-2.054;2024-03-23T14:52:15;99834.13;;;11.00;52.16
77023;BME280;65952;51.440;-2.054;2024-03-23T14:54:41;99827.03;;;11.22;51.44
77023;BME280;65952;51.440;-2.054;2024-03-23T14:57:06;99822.88;;;11.50;51.33